createdAt,value
2019-05-03T00:01:02.385Z,98.8998
2019-05-03T00:02:04.291Z,99.0295
2019-05-03T00:03:07.316Z,99.1608
2019-05-03T00:04:11.936Z,99.2493
2019-05-03T00:05:15.281Z,99.2264
2019-05-03T00:06:18.325Z,99.2981
2019-05-03T00:07:22.323Z,99.2935
2019-05-03T00:08:24.310Z,99.2889
2019-05-03T00:09:27.284Z,99.3820
2019-05-03T00:10:31.790Z,99.4232
2019-05-03T00:11:35.292Z,99.4675
2019-05-03T00:12:37.345Z,99.2676
2019-05-03T00:13:41.912Z,99.3500
2019-05-03T00:14:45.299Z,99.4003
2019-05-03T00:15:48.271Z,99.3393
2019-05-03T00:16:52.230Z,99.3347
2019-05-03T00:17:55.367Z,99.3942
2019-05-03T00:19:00.953Z,99.1562
2019-05-03T00:20:04.278Z,98.9502
2019-05-03T00:21:07.287Z,99.1058
2019-05-03T00:22:12.202Z,99.2798
2019-05-03T00:23:15.316Z,99.2218
2019-05-03T00:24:18.291Z,99.0463
2019-05-03T00:25:22.125Z,99.0707
2019-05-03T00:26:24.296Z,99.1211
2019-05-03T00:27:27.302Z,98.9151
2019-05-03T00:28:32.071Z,99.0753
2019-05-03T00:29:35.283Z,99.2660
2019-05-03T00:30:38.296Z,99.2889
2019-05-03T00:31:42.322Z,99.2065
2019-05-03T00:32:45.269Z,99.1897
2019-05-03T00:33:48.337Z,99.3545
2019-05-03T00:34:52.386Z,99.1897
2019-05-03T00:35:55.286Z,98.8785
2019-05-03T00:36:58.263Z,98.6984
2019-05-03T00:38:02.104Z,98.8220
2019-05-03T00:39:07.319Z,98.8052
2019-05-03T00:40:12.138Z,98.8922
2019-05-03T00:41:14.280Z,98.8510
2019-05-03T00:42:16.619Z,98.8739
2019-05-03T00:43:19.301Z,98.8602
2019-05-03T00:44:22.303Z,98.9517
2019-05-03T00:45:25.256Z,99.0158
2019-05-03T00:46:28.301Z,98.6709
2019-05-03T00:47:32.853Z,98.6755
2019-05-03T00:48:36.290Z,98.7091
2019-05-03T00:49:39.342Z,98.8952
2019-05-03T00:50:42.595Z,98.6450
2019-05-03T00:51:45.305Z,98.7869
2019-05-03T00:52:48.283Z,98.8037
2019-05-03T00:53:53.071Z,98.8098
2019-05-03T00:54:56.339Z,98.8312
2019-05-03T00:55:59.295Z,98.4207
2019-05-03T00:57:02.704Z,98.8647
2019-05-03T00:58:06.297Z,98.8602
2019-05-03T00:59:09.340Z,98.8220
2019-05-03T01:00:12.411Z,98.7778
2019-05-03T01:01:15.308Z,98.8098
2019-05-03T01:02:18.292Z,98.7182
2019-05-03T01:03:21.929Z,98.7503
2019-05-03T01:04:25.298Z,98.5611
2019-05-03T01:05:28.296Z,98.9334
2019-05-03T01:06:31.818Z,98.8312
2019-05-03T01:07:35.270Z,98.8174
2019-05-03T01:08:38.313Z,98.8510
2019-05-03T01:09:42.391Z,98.8098
2019-05-03T01:10:45.350Z,98.5809
2019-05-03T01:11:48.275Z,98.6755
2019-05-03T01:12:52.297Z,98.4649
2019-05-03T01:13:55.293Z,98.4848
2019-05-03T01:14:58.311Z,98.4161
2019-05-03T01:16:02.750Z,98.4161
2019-05-03T01:17:06.276Z,98.6633
2019-05-03T01:18:09.306Z,98.7350
2019-05-03T01:19:12.280Z,98.8373
2019-05-03T01:20:15.320Z,98.7808
2019-05-03T01:21:18.325Z,98.8327
2019-05-03T01:22:22.679Z,98.9364
2019-05-03T01:23:25.262Z,99.0616
2019-05-03T01:24:28.299Z,98.9609
2019-05-03T01:25:35.137Z,98.8235
2019-05-03T01:26:38.317Z,98.8144
2019-05-03T01:27:42.759Z,98.9273
2019-05-03T01:28:46.275Z,98.9792
2019-05-03T01:29:49.299Z,99.1028
2019-05-03T01:30:52.292Z,99.1241
2019-05-03T01:31:55.336Z,99.1348
2019-05-03T01:32:58.280Z,99.0829
2019-05-03T01:34:02.362Z,98.8632
2019-05-03T01:35:05.300Z,98.9059
2019-05-03T01:36:08.304Z,98.6755
2019-05-03T01:37:11.955Z,98.6816
2019-05-03T01:38:15.275Z,98.4878
2019-05-03T01:39:18.392Z,98.3886
2019-05-03T01:40:22.045Z,97.8073
2019-05-03T01:41:25.321Z,97.4670
2019-05-03T01:42:28.310Z,97.8485
2019-05-03T01:43:31.728Z,97.6822
2019-05-03T01:44:35.296Z,97.7829
2019-05-03T01:45:38.273Z,97.9858
2019-05-03T01:46:42.180Z,97.2702
2019-05-03T01:47:45.299Z,97.6104
2019-05-03T01:48:48.295Z,97.3205
2019-05-03T01:49:51.957Z,97.5448
2019-05-03T01:50:55.295Z,97.4395
2019-05-03T01:51:58.274Z,97.5036
2019-05-03T01:53:01.944Z,97.5219
2019-05-03T01:54:05.308Z,97.2747
2019-05-03T01:55:08.272Z,97.0916
2019-05-03T01:56:11.831Z,96.9009
2019-05-03T01:57:15.284Z,97.3083
2019-05-03T01:58:18.359Z,97.1893
2019-05-03T01:59:22.695Z,97.0199
2019-05-03T02:00:25.319Z,97.3083
2019-05-03T02:01:28.270Z,97.3953
2019-05-03T02:02:32.400Z,97.5463
2019-05-03T02:03:35.308Z,97.5998
2019-05-03T02:04:38.284Z,97.8988
2019-05-03T02:05:40.296Z,97.7569
2019-05-03T02:06:43.277Z,97.7752
2019-05-03T02:07:48.537Z,97.7478
2019-05-03T02:08:52.194Z,97.4578
2019-05-03T02:09:55.296Z,97.8286
2019-05-03T02:10:58.274Z,97.1969
2019-05-03T02:12:02.159Z,97.2152
2019-05-03T02:13:05.266Z,97.4487
2019-05-03T02:14:08.286Z,96.7163
2019-05-03T02:15:11.816Z,97.0565
2019-05-03T02:16:15.288Z,96.2142
2019-05-03T02:17:18.312Z,96.6018
2019-05-03T02:18:22.339Z,96.6445
2019-05-03T02:19:25.329Z,96.5118
2019-05-03T02:20:28.286Z,95.6512
2019-05-03T02:21:32.227Z,95.5276
2019-05-03T02:22:35.287Z,96.0937
2019-05-03T02:23:37.269Z,96.7666
2019-05-03T02:24:42.158Z,96.5164
2019-05-03T02:25:55.527Z,97.4395
2019-05-03T02:26:53.283Z,97.7569
2019-05-03T02:27:56.279Z,97.8943
2019-05-03T02:28:59.332Z,98.3566
2019-05-03T02:30:03.077Z,98.7030
2019-05-03T02:31:06.294Z,98.6526
2019-05-03T02:32:09.271Z,98.4756
2019-05-03T02:33:13.472Z,98.4192
2019-05-03T02:34:15.330Z,98.1674
2019-05-03T02:35:18.323Z,98.3230
2019-05-03T02:36:23.174Z,97.7295
2019-05-03T02:37:26.260Z,97.4090
2019-05-03T02:38:29.280Z,97.4685
2019-05-03T02:39:33.510Z,97.3159
2019-05-03T02:40:36.299Z,96.9741
2019-05-03T02:41:39.285Z,97.2717
2019-05-03T02:42:42.307Z,97.4914
2019-05-03T02:43:45.492Z,97.3022
2019-05-03T02:44:48.345Z,97.4136
2019-05-03T02:45:51.294Z,97.5921
2019-05-03T02:46:56.262Z,97.9446
2019-05-03T02:47:59.294Z,97.4228
2019-05-03T02:49:06.174Z,97.7111
2019-05-03T02:50:09.330Z,97.6654
2019-05-03T02:51:12.294Z,97.9202
2019-05-03T02:52:15.308Z,98.1460
2019-05-03T02:53:17.296Z,98.2879
2019-05-03T02:54:20.286Z,97.8439
2019-05-03T02:55:25.780Z,98.1460
2019-05-03T02:56:28.324Z,98.2513
2019-05-03T02:57:31.313Z,98.1903
2019-05-03T02:58:35.799Z,98.3658
2019-05-03T02:59:39.316Z,98.0362
2019-05-03T03:00:45.336Z,98.4466
2019-05-03T03:01:48.339Z,98.7457
2019-05-03T03:02:51.297Z,98.5992
2019-05-03T03:03:56.000Z,98.6206
2019-05-03T03:04:59.295Z,98.5153
2019-05-03T03:06:02.291Z,98.2544
2019-05-03T03:07:05.852Z,98.3932
2019-05-03T03:08:09.259Z,98.6618
2019-05-03T03:09:12.316Z,98.7991
2019-05-03T03:10:16.154Z,99.0555
2019-05-03T03:11:19.334Z,99.2477
2019-05-03T03:12:22.285Z,99.1485
2019-05-03T03:13:25.529Z,99.2203
2019-05-03T03:14:28.295Z,98.9883
2019-05-03T03:15:31.305Z,98.7320
2019-05-03T03:16:36.156Z,98.9609
2019-05-03T03:17:39.282Z,99.0158
2019-05-03T03:18:45.374Z,99.0936
2019-05-03T03:19:48.267Z,98.9273
2019-05-03T03:20:51.298Z,99.0738
2019-05-03T03:21:56.266Z,98.5336
2019-05-03T03:22:59.281Z,98.4344
2019-05-03T03:24:02.289Z,97.8744
2019-05-03T03:25:05.507Z,98.1460
2019-05-03T03:26:08.274Z,98.2544
2019-05-03T03:27:11.342Z,98.2589
2019-05-03T03:28:15.837Z,98.4100
2019-05-03T03:29:19.306Z,98.4573
2019-05-03T03:30:22.316Z,98.3658
2019-05-03T03:31:28.021Z,98.7442
2019-05-03T03:32:32.352Z,98.4436
2019-05-03T03:33:40.141Z,98.6908
2019-05-03T03:34:54.368Z,97.9934
2019-05-03T03:35:51.283Z,98.1216
2019-05-03T03:37:00.855Z,98.2406
2019-05-03T03:38:02.325Z,98.1231
2019-05-03T03:39:06.031Z,97.7935
2019-05-03T03:40:09.347Z,97.7279
2019-05-03T03:41:12.278Z,97.4731
2019-05-03T03:42:16.173Z,97.1756
2019-05-03T03:43:19.310Z,97.0138
2019-05-03T03:44:21.271Z,97.1893
2019-05-03T03:45:25.398Z,97.5921
2019-05-03T03:46:31.864Z,96.7544
2019-05-03T03:47:35.813Z,97.4533
2019-05-03T03:48:39.315Z,97.4853
2019-05-03T03:49:42.288Z,97.0336
2019-05-03T03:50:45.693Z,97.5463
2019-05-03T03:51:49.299Z,97.6013
2019-05-03T03:52:52.259Z,97.6364
2019-05-03T03:53:55.676Z,97.4762
2019-05-03T03:54:59.327Z,97.5738
2019-05-03T03:56:02.280Z,97.8805
2019-05-03T03:57:08.062Z,97.9248
2019-05-03T03:58:11.297Z,97.5509
2019-05-03T03:59:15.393Z,97.0275
2019-05-03T04:00:18.345Z,97.6242
2019-05-03T04:01:21.279Z,97.6226
2019-05-03T04:02:26.439Z,97.0779
2019-05-03T04:03:29.256Z,97.5677
2019-05-03T04:04:32.345Z,96.9650
2019-05-03T04:05:35.763Z,96.5713
2019-05-03T04:06:38.302Z,97.1099
2019-05-03T04:07:41.251Z,96.9467
2019-05-03T04:08:45.311Z,97.2335
2019-05-03T04:09:48.344Z,97.4624
2019-05-03T04:10:51.300Z,97.7066
2019-05-03T04:11:56.615Z,97.3297
2019-05-03T04:13:00.285Z,97.5769
2019-05-03T04:14:05.403Z,97.8973
2019-05-03T04:15:08.328Z,97.7752
2019-05-03T04:16:11.272Z,97.9202
2019-05-03T04:17:15.117Z,97.9217
2019-05-03T04:18:18.297Z,98.3734
2019-05-03T04:19:21.337Z,98.4024
2019-05-03T04:20:25.751Z,98.3459
2019-05-03T04:21:29.325Z,98.6664
2019-05-03T04:22:32.324Z,98.7274
2019-05-03T04:23:35.834Z,98.7533
2019-05-03T04:24:39.264Z,98.8312
2019-05-03T04:25:41.316Z,98.9746
2019-05-03T04:26:45.358Z,98.8098
2019-05-03T04:27:48.298Z,98.7961
2019-05-03T04:28:51.297Z,99.1516
2019-05-03T04:29:55.576Z,99.2248
2019-05-03T04:30:57.449Z,99.1211
2019-05-03T04:32:00.324Z,98.9364
2019-05-03T04:33:05.992Z,98.9456
2019-05-03T04:34:09.282Z,99.0646
2019-05-03T04:35:12.345Z,99.1577
2019-05-03T04:36:15.939Z,99.3896
2019-05-03T04:37:21.316Z,99.4537
2019-05-03T04:38:25.661Z,99.5270
2019-05-03T04:39:29.306Z,99.4446
2019-05-03T04:40:32.303Z,99.4720
2019-05-03T04:41:35.719Z,99.4492
2019-05-03T04:42:39.275Z,99.4919
2019-05-03T04:43:42.319Z,99.4766
2019-05-03T04:44:45.803Z,99.5422
2019-05-03T04:45:49.279Z,99.4812
2019-05-03T04:46:55.083Z,99.4583
2019-05-03T04:48:00.308Z,99.3484
2019-05-03T04:49:05.521Z,99.4675
2019-05-03T04:50:09.301Z,99.5178
2019-05-03T04:51:12.300Z,99.2523
2019-05-03T04:52:16.486Z,99.3866
2019-05-03T04:53:19.278Z,99.5544
2019-05-03T04:54:25.229Z,99.2660
2019-05-03T04:55:28.343Z,99.3179
2019-05-03T04:56:31.296Z,98.6908
2019-05-03T04:57:40.429Z,98.7137
2019-05-03T04:58:42.278Z,98.8739
2019-05-03T04:59:45.375Z,99.0784
2019-05-03T05:00:48.294Z,98.9746
2019-05-03T05:01:51.305Z,98.4283
2019-05-03T05:02:55.208Z,98.4878
2019-05-03T05:03:58.310Z,98.6496
2019-05-03T05:05:01.320Z,98.6496
2019-05-03T05:06:06.326Z,98.4985
2019-05-03T05:07:09.331Z,98.5199
2019-05-03T05:08:12.325Z,98.3703
2019-05-03T05:09:15.681Z,98.3658
2019-05-03T05:10:18.244Z,98.5245
2019-05-03T05:11:26.098Z,98.8556
2019-05-03T05:12:29.304Z,98.6633
2019-05-03T05:13:32.327Z,98.7167
2019-05-03T05:14:35.548Z,98.4253
2019-05-03T05:15:38.287Z,98.1735
2019-05-03T05:16:41.309Z,98.4375
2019-05-03T05:17:45.933Z,98.0758
2019-05-03T05:18:49.340Z,98.2513
2019-05-03T05:19:52.302Z,98.1506
2019-05-03T05:20:55.558Z,98.2284
2019-05-03T05:21:58.301Z,98.3154
2019-05-03T05:23:01.298Z,98.4329
2019-05-03T05:24:05.585Z,98.4924
2019-05-03T05:25:09.319Z,98.1216
2019-05-03T05:26:14.331Z,98.2513
2019-05-03T05:27:17.292Z,98.1826
2019-05-03T05:28:20.306Z,98.4009
2019-05-03T05:29:25.231Z,98.4924
2019-05-03T05:30:28.303Z,98.6664
2019-05-03T05:31:31.324Z,98.4146
2019-05-03T05:32:34.962Z,98.5580
2019-05-03T05:33:38.302Z,98.9059
2019-05-03T05:34:41.334Z,99.0921
2019-05-03T05:35:44.387Z,98.9700
2019-05-03T05:36:47.302Z,98.8724
2019-05-03T05:37:50.323Z,99.1577
2019-05-03T05:38:55.176Z,99.0143
2019-05-03T05:39:58.314Z,98.7533
2019-05-03T05:41:01.282Z,98.5306
2019-05-03T05:42:04.562Z,98.3413
2019-05-03T05:43:08.302Z,98.4329
2019-05-03T05:44:11.323Z,98.3246
2019-05-03T05:45:15.326Z,97.8012
2019-05-03T05:46:18.324Z,98.2193
2019-05-03T05:47:20.324Z,98.3200
2019-05-03T05:48:24.636Z,98.3001
2019-05-03T05:49:27.371Z,98.6252
2019-05-03T05:50:30.314Z,98.6938
2019-05-03T05:51:35.206Z,98.5168
2019-05-03T05:52:38.260Z,98.5718
2019-05-03T05:53:41.335Z,98.4329
2019-05-03T05:54:45.620Z,98.2284
2019-05-03T05:55:49.292Z,98.4894
2019-05-03T05:56:52.318Z,98.1826
2019-05-03T05:58:03.002Z,98.2834
2019-05-03T05:59:04.483Z,98.2788
2019-05-03T06:00:08.342Z,98.6801
2019-05-03T06:01:11.330Z,98.5794
2019-05-03T06:02:15.063Z,98.5168
2019-05-03T06:03:18.354Z,98.1872
2019-05-03T06:04:21.302Z,97.5235
2019-05-03T06:05:25.227Z,97.0474
2019-05-03T06:06:28.332Z,97.1984
2019-05-03T06:07:31.387Z,96.4004
2019-05-03T06:08:35.434Z,96.4523
2019-05-03T06:09:38.289Z,96.0677
2019-05-03T06:10:41.325Z,96.0082
2019-05-03T06:11:45.038Z,95.9655
2019-05-03T06:12:48.359Z,96.5896
2019-05-03T06:13:51.304Z,95.4589
2019-05-03T06:14:54.498Z,95.5871
2019-05-03T06:15:58.329Z,95.7748
2019-05-03T06:17:01.350Z,95.8709
2019-05-03T06:18:05.755Z,95.6146
2019-05-03T06:19:09.290Z,96.2951
2019-05-03T06:20:12.383Z,96.3546
2019-05-03T06:21:15.322Z,96.4797
2019-05-03T06:22:18.358Z,96.1532
2019-05-03T06:23:21.289Z,95.6542
2019-05-03T06:24:24.939Z,95.4452
2019-05-03T06:25:28.366Z,94.9554
2019-05-03T06:26:31.365Z,95.3491
2019-05-03T06:27:34.702Z,95.1461
2019-05-03T06:28:37.334Z,94.2214
2019-05-03T06:29:40.290Z,95.2575
2019-05-03T06:30:45.315Z,94.8669
2019-05-03T06:31:49.341Z,95.7320
2019-05-03T06:32:52.313Z,96.0632
2019-05-03T06:33:55.420Z,96.6857
2019-05-03T06:34:58.297Z,96.6033
2019-05-03T06:36:01.309Z,96.9604
2019-05-03T06:37:04.559Z,96.6720
2019-05-03T06:38:07.365Z,96.3653
2019-05-03T06:39:10.310Z,96.3745
2019-05-03T06:40:14.953Z,96.3546
2019-05-03T06:41:18.288Z,96.5667
2019-05-03T06:42:22.878Z,96.7208
2019-05-03T06:43:26.310Z,96.9238
2019-05-03T06:44:30.345Z,97.3159
2019-05-03T06:45:35.242Z,97.2763
2019-05-03T06:46:38.329Z,96.9192
2019-05-03T06:47:46.061Z,97.2396
2019-05-03T06:48:49.324Z,97.5875
2019-05-03T06:49:52.325Z,97.1237
2019-05-03T06:50:55.790Z,96.7025
2019-05-03T06:52:00.300Z,96.6262
2019-05-03T06:53:05.817Z,96.6064
2019-05-03T06:54:11.299Z,96.8734
2019-05-03T06:55:14.618Z,96.9329
2019-05-03T06:56:19.220Z,96.8536
2019-05-03T06:57:26.360Z,96.7437
2019-05-03T06:58:33.136Z,96.6491
2019-05-03T06:59:37.321Z,96.8811
2019-05-03T07:00:40.278Z,96.4416
2019-05-03T07:01:42.326Z,96.0845
2019-05-03T07:02:45.333Z,96.4050
2019-05-03T07:03:48.325Z,96.6537
2019-05-03T07:04:51.341Z,96.5927
2019-05-03T07:05:54.889Z,95.9213
2019-05-03T07:06:58.324Z,95.6786
2019-05-03T07:08:01.337Z,95.6832
2019-05-03T07:09:05.345Z,95.8602
2019-05-03T07:10:08.330Z,95.9991
2019-05-03T07:11:11.325Z,95.7275
2019-05-03T07:12:14.887Z,95.3796
2019-05-03T07:13:18.312Z,95.8480
2019-05-03T07:14:21.362Z,96.4187
2019-05-03T07:15:25.139Z,95.9350
2019-05-03T07:16:28.317Z,96.5301
2019-05-03T07:17:31.313Z,96.4660
2019-05-03T07:18:35.157Z,95.8236
2019-05-03T07:19:38.338Z,96.0296
2019-05-03T07:20:41.278Z,95.6908
2019-05-03T07:21:44.712Z,95.4223
2019-05-03T07:22:48.334Z,95.0973
2019-05-03T07:23:51.318Z,94.4427
2019-05-03T07:24:54.617Z,94.5739
2019-05-03T07:25:58.320Z,94.6975
2019-05-03T07:27:02.317Z,94.3633
2019-05-03T07:28:05.308Z,94.4610
2019-05-03T07:29:08.284Z,94.0383
2019-05-03T07:30:11.372Z,94.6197
2019-05-03T07:31:15.071Z,95.2468
2019-05-03T07:32:18.318Z,94.4961
2019-05-03T07:33:21.292Z,94.3633
2019-05-03T07:34:24.743Z,94.5235
2019-05-03T07:35:28.383Z,95.1186
2019-05-03T07:36:35.388Z,94.4183
2019-05-03T07:37:38.357Z,94.7021
2019-05-03T07:38:40.326Z,94.1436
2019-05-03T07:39:45.144Z,94.3267
2019-05-03T07:40:48.313Z,94.6014
2019-05-03T07:41:51.333Z,94.2809
2019-05-03T07:42:55.520Z,94.0078
2019-05-03T07:43:59.320Z,93.7591
2019-05-03T07:45:04.974Z,94.2229
2019-05-03T07:46:08.369Z,93.5821
2019-05-03T07:47:11.297Z,93.6461
2019-05-03T07:48:15.042Z,93.7835
2019-05-03T07:49:18.322Z,94.1436
2019-05-03T07:50:21.291Z,93.6629
2019-05-03T07:51:24.880Z,93.6782
2019-05-03T07:52:28.377Z,93.0220
2019-05-03T07:53:31.289Z,93.7911
2019-05-03T07:54:34.857Z,93.7362
2019-05-03T07:55:38.301Z,93.0602
2019-05-03T07:56:41.368Z,93.1090
2019-05-03T07:57:45.308Z,93.2876
2019-05-03T07:58:59.290Z,93.3608
2019-05-03T07:59:56.292Z,93.9529
2019-05-03T08:01:06.178Z,93.6538
2019-05-03T08:02:07.361Z,93.8201
2019-05-03T08:03:10.346Z,93.0877
2019-05-03T08:04:15.272Z,93.0495
2019-05-03T08:05:18.329Z,92.9778
2019-05-03T08:06:21.296Z,93.5088
2019-05-03T08:07:25.778Z,93.3852
2019-05-03T08:08:29.330Z,93.9483
2019-05-03T08:09:32.315Z,94.1680
2019-05-03T08:10:34.563Z,94.3404
2019-05-03T08:11:37.334Z,93.3837
2019-05-03T08:12:40.357Z,93.1685
2019-05-03T08:13:44.643Z,93.8293
2019-05-03T08:14:48.324Z,94.3099
2019-05-03T08:15:51.287Z,93.9254
2019-05-03T08:16:54.769Z,94.4915
2019-05-03T08:17:58.338Z,93.4585
2019-05-03T08:19:01.319Z,93.8384
2019-05-03T08:20:05.272Z,93.5943
2019-05-03T08:21:08.327Z,93.4859
2019-05-03T08:22:11.284Z,94.1207
2019-05-03T08:23:26.409Z,93.7697
2019-05-03T08:24:22.331Z,94.0810
2019-05-03T08:25:25.295Z,94.2687
2019-05-03T08:26:28.305Z,94.2550
2019-05-03T08:27:31.363Z,94.2275
2019-05-03T08:28:34.681Z,94.0337
2019-05-03T08:29:38.341Z,94.2901
2019-05-03T08:30:41.311Z,94.4198
2019-05-03T08:31:45.438Z,94.6975
2019-05-03T08:32:48.312Z,94.4045
2019-05-03T08:33:51.347Z,94.5022
2019-05-03T08:34:55.603Z,94.5739
2019-05-03T08:35:59.300Z,94.8074
2019-05-03T08:37:02.305Z,94.8821
2019-05-03T08:38:05.288Z,94.6853
2019-05-03T08:39:08.358Z,94.7631
2019-05-03T08:40:11.329Z,94.7997
2019-05-03T08:41:14.531Z,95.1324
2019-05-03T08:42:17.294Z,95.0057
2019-05-03T08:43:20.320Z,94.7662
2019-05-03T08:44:25.039Z,94.5296
2019-05-03T08:45:28.332Z,94.8669
2019-05-03T08:46:31.306Z,94.9722
2019-05-03T08:47:34.540Z,94.4930
2019-05-03T08:48:37.271Z,94.2397
2019-05-03T08:49:39.343Z,94.2763
2019-05-03T08:50:42.325Z,93.7270
2019-05-03T08:51:45.338Z,94.3557
2019-05-03T08:52:48.307Z,94.2916
2019-05-03T08:53:51.310Z,94.1253
2019-05-03T08:54:55.020Z,93.5042
2019-05-03T08:55:58.295Z,93.7377
2019-05-03T08:57:01.356Z,93.9574
2019-05-03T08:58:05.207Z,93.8048
2019-05-03T08:59:08.327Z,93.8140
2019-05-03T09:00:11.312Z,93.5439
2019-05-03T09:01:14.834Z,93.3577
2019-05-03T09:02:18.732Z,93.3486
2019-05-03T09:03:22.368Z,93.3303
2019-05-03T09:04:36.168Z,92.4971
2019-05-03T09:05:35.809Z,93.0770
2019-05-03T09:06:39.330Z,93.2189
2019-05-03T09:07:44.626Z,92.9351
2019-05-03T09:08:47.361Z,92.7565
2019-05-03T09:09:50.322Z,92.8344
2019-05-03T09:10:54.556Z,92.8954
2019-05-03T09:11:58.321Z,92.4559
2019-05-03T09:13:03.522Z,92.1431
2019-05-03T09:14:09.293Z,91.1009
2019-05-03T09:15:12.339Z,90.5272
2019-05-03T09:16:15.340Z,90.3807
2019-05-03T09:17:19.309Z,90.2754
2019-05-03T09:18:22.316Z,88.8609
2019-05-03T09:19:26.273Z,88.7877
2019-05-03T09:20:32.279Z,90.1762
2019-05-03T09:21:36.328Z,89.6391
2019-05-03T09:22:39.329Z,90.0984
2019-05-03T09:23:42.305Z,91.4885
2019-05-03T09:24:46.316Z,90.3807
2019-05-03T09:25:49.325Z,90.6508
2019-05-03T09:26:55.412Z,89.5720
2019-05-03T09:27:59.329Z,90.0969
2019-05-03T09:29:05.375Z,90.2983
2019-05-03T09:30:09.294Z,90.1900
2019-05-03T09:31:12.302Z,89.7490
2019-05-03T09:32:16.340Z,89.4621
2019-05-03T09:33:19.314Z,89.2790
2019-05-03T09:34:25.538Z,89.7276
2019-05-03T09:35:33.050Z,88.2567
2019-05-03T09:36:37.315Z,88.2933
2019-05-03T09:37:40.329Z,87.6249
2019-05-03T09:38:45.545Z,88.1514
2019-05-03T09:39:49.272Z,87.4846
2019-05-03T09:40:54.445Z,86.3661
2019-05-03T09:41:58.311Z,86.6224
2019-05-03T09:43:01.336Z,86.8574
2019-05-03T09:44:05.336Z,88.1346
2019-05-03T09:45:08.327Z,89.4835
2019-05-03T09:46:11.320Z,89.3477
2019-05-03T09:47:15.298Z,88.6686
2019-05-03T09:48:18.371Z,87.7821
2019-05-03T09:49:22.299Z,88.4672
2019-05-03T09:50:25.338Z,88.5084
2019-05-03T09:51:29.311Z,88.3909
2019-05-03T09:52:32.290Z,87.0069
2019-05-03T09:53:35.358Z,87.1672
2019-05-03T09:54:39.325Z,86.3355
2019-05-03T09:55:42.387Z,85.7038
2019-05-03T09:56:55.270Z,85.5940
2019-05-03T09:57:55.543Z,84.6143
2019-05-03T09:58:59.357Z,82.6627
2019-05-03T10:00:04.762Z,83.6027
2019-05-03T10:01:08.558Z,84.4068
2019-05-03T10:02:12.309Z,84.1505
2019-05-03T10:03:15.308Z,84.3473
2019-05-03T10:04:19.322Z,85.5344
2019-05-03T10:05:22.398Z,85.7130
2019-05-03T10:06:26.311Z,85.8808
2019-05-03T10:07:29.318Z,85.7160
2019-05-03T10:08:32.303Z,84.1840
2019-05-03T10:09:36.361Z,84.0131
2019-05-03T10:10:39.296Z,85.0217
2019-05-03T10:11:45.644Z,84.6281
2019-05-03T10:12:49.291Z,84.5945
2019-05-03T10:13:56.322Z,85.4063
2019-05-03T10:14:59.297Z,85.0080
2019-05-03T10:16:02.286Z,84.1642
2019-05-03T10:17:06.343Z,84.5136
2019-05-03T10:18:11.110Z,84.2527
2019-05-03T10:19:16.217Z,84.6906
2019-05-03T10:20:19.348Z,83.8804
2019-05-03T10:21:25.704Z,83.5569
2019-05-03T10:22:29.308Z,84.3259
2019-05-03T10:23:32.320Z,83.5782
2019-05-03T10:24:36.297Z,81.6510
2019-05-03T10:25:40.386Z,82.4033
2019-05-03T10:26:45.580Z,82.9343
2019-05-03T10:27:49.300Z,83.0976
2019-05-03T10:28:55.045Z,82.8382
2019-05-03T10:30:10.619Z,82.5299
2019-05-03T10:31:07.907Z,82.1180
2019-05-03T10:32:12.331Z,81.6022
2019-05-03T10:33:15.575Z,82.2614
2019-05-03T10:34:18.314Z,81.9501
2019-05-03T10:35:21.357Z,83.0213
2019-05-03T10:36:25.323Z,83.0900
2019-05-03T10:37:28.330Z,83.0625
2019-05-03T10:38:31.295Z,82.7222
2019-05-03T10:39:36.223Z,81.7334
2019-05-03T10:40:40.320Z,81.4511
2019-05-03T10:41:45.357Z,81.9593
2019-05-03T10:42:49.343Z,81.3535
2019-05-03T10:43:55.472Z,81.1215
2019-05-03T10:44:59.326Z,81.0117
2019-05-03T10:46:02.311Z,81.2589
2019-05-03T10:47:06.365Z,81.5839
2019-05-03T10:48:09.287Z,81.2818
2019-05-03T10:49:15.166Z,80.6684
2019-05-03T10:50:18.318Z,81.8296
2019-05-03T10:51:22.297Z,82.2751
2019-05-03T10:52:25.822Z,82.0554
2019-05-03T10:53:29.295Z,82.0768
2019-05-03T10:54:35.583Z,82.3697
2019-05-03T10:55:39.312Z,82.7649
2019-05-03T10:56:45.254Z,82.7771
2019-05-03T10:57:48.339Z,82.9252
2019-05-03T10:58:54.774Z,83.1891
2019-05-03T10:59:58.305Z,83.7079
2019-05-03T11:01:01.330Z,84.4129
2019-05-03T11:02:05.295Z,84.6723
2019-05-03T11:03:08.322Z,85.4734
2019-05-03T11:04:12.330Z,87.5563
2019-05-03T11:05:15.331Z,88.5542
2019-05-03T11:06:19.309Z,90.9911
2019-05-03T11:07:22.289Z,90.9041
2019-05-03T11:08:25.346Z,91.7128
2019-05-03T11:09:29.375Z,92.7123
2019-05-03T11:10:31.348Z,92.5277
2019-05-03T11:11:35.419Z,92.9778
2019-05-03T11:12:38.296Z,92.2545
2019-05-03T11:13:42.337Z,92.9992
2019-05-03T11:14:45.636Z,92.5505
2019-05-03T11:15:49.304Z,91.0277
2019-05-03T11:16:55.135Z,92.1675
2019-05-03T11:17:58.320Z,91.7784
2019-05-03T11:19:02.330Z,92.4376
2019-05-03T11:20:05.376Z,91.5343
2019-05-03T11:21:09.328Z,91.2779
2019-05-03T11:22:14.459Z,91.7510
2019-05-03T11:23:18.292Z,90.8721
2019-05-03T11:24:25.069Z,90.1717
2019-05-03T11:25:30.309Z,89.4072
2019-05-03T11:26:34.954Z,88.5084
2019-05-03T11:27:38.350Z,87.0665
2019-05-03T11:28:42.301Z,87.4800
2019-05-03T11:29:45.387Z,86.8620
2019-05-03T11:30:56.380Z,87.0771
2019-05-03T11:31:56.341Z,85.9998
2019-05-03T11:32:59.298Z,86.5553
2019-05-03T11:34:03.327Z,87.8096
2019-05-03T11:35:06.330Z,86.7689
2019-05-03T11:36:10.360Z,87.3915
2019-05-03T11:37:14.552Z,85.6245
2019-05-03T11:38:18.385Z,85.9220
2019-05-03T11:39:22.316Z,86.8650
2019-05-03T11:40:25.310Z,87.5212
2019-05-03T11:41:32.640Z,87.0588
2019-05-03T11:42:36.310Z,87.0314
2019-05-03T11:43:40.332Z,87.4052
2019-05-03T11:44:44.629Z,86.7338
2019-05-03T11:45:49.406Z,89.1325
2019-05-03T11:46:55.093Z,88.9250
2019-05-03T11:47:58.297Z,88.8670
2019-05-03T11:49:02.295Z,88.4138
2019-05-03T11:50:05.303Z,89.6681
2019-05-03T11:51:09.316Z,89.6635
2019-05-03T11:52:12.299Z,89.7078
2019-05-03T11:53:15.316Z,88.0842
2019-05-03T11:54:21.309Z,88.3085
2019-05-03T11:55:26.797Z,89.6544
2019-05-03T11:56:29.307Z,88.5084
2019-05-03T11:57:32.292Z,87.8325
2019-05-03T11:58:36.299Z,88.5725
2019-05-03T11:59:39.319Z,86.5644
2019-05-03T12:00:42.344Z,86.5049
2019-05-03T12:01:45.329Z,87.8538
2019-05-03T12:02:48.339Z,86.1189
2019-05-03T12:03:52.268Z,86.2470
2019-05-03T12:04:55.406Z,86.2928
2019-05-03T12:05:58.353Z,85.8671
2019-05-03T12:07:01.331Z,86.1204
2019-05-03T12:08:05.416Z,86.4073
2019-05-03T12:09:09.290Z,86.9016
2019-05-03T12:10:28.301Z,87.0024
2019-05-03T12:11:20.348Z,85.9602
2019-05-03T12:12:24.504Z,85.2323
2019-05-03T12:13:28.306Z,85.8915
2019-05-03T12:14:31.330Z,86.7384
2019-05-03T12:15:35.234Z,84.9058
2019-05-03T12:17:12.221Z,83.5782
2019-05-03T12:17:53.956Z,82.6597
2019-05-03T12:18:55.807Z,82.5315
2019-05-03T12:20:00.762Z,84.2573
2019-05-03T12:21:08.266Z,83.1449
2019-05-03T12:22:14.242Z,83.1723
2019-05-03T12:23:20.671Z,85.0797
2019-05-03T12:24:26.727Z,82.7085
2019-05-03T12:25:30.932Z,79.3957
2019-05-03T12:26:41.773Z,81.3809
2019-05-03T12:27:43.990Z,82.3484
2019-05-03T12:28:48.321Z,81.2772
2019-05-03T12:29:52.485Z,82.3484
2019-05-03T12:30:56.343Z,81.6937
2019-05-03T12:32:00.316Z,81.4038
2019-05-03T12:33:05.697Z,80.6256
2019-05-03T12:34:09.277Z,80.0549
2019-05-03T12:35:12.353Z,80.9186
2019-05-03T12:36:16.352Z,80.7126
2019-05-03T12:37:19.307Z,78.6023
2019-05-03T12:38:22.345Z,77.7203
2019-05-03T12:39:30.435Z,75.8938
2019-05-03T12:40:34.956Z,75.7519
2019-05-03T12:41:38.296Z,74.3954
2019-05-03T12:42:41.327Z,75.5077
2019-05-03T12:43:45.340Z,76.4935
2019-05-03T12:44:47.350Z,74.8257
2019-05-03T12:45:50.312Z,75.9075
2019-05-03T12:46:54.282Z,77.1847
2019-05-03T12:47:57.335Z,78.0713
2019-05-03T12:49:01.416Z,78.9929
2019-05-03T12:50:05.338Z,78.2467
2019-05-03T12:51:09.632Z,77.6562